Time;durP1;ratioP1;P1;durP2;ratioP2;P2;SDS_P1;SDS_P2;PMS_P1;PMS_P2;Temp;Humidity;BMP_temperature;BMP_pressure;BME280_temperature;BME280_humidity;BME280_pressure;Samples;Min_cycle;Max_cycle;Signal;HPM_P1;HPM_P2
2023/05/24 00:01:06;;;;;;;0.65;0.40;;;;;;;;;;5015603;28;20050;-60
2023/05/24 00:03:38;;;;;;;1.13;0.60;;;;;;;;;;5024056;28;20061;-63
2023/05/24 00:06:06;;;;;;;3.30;0.73;;;;;;;;;;5016727;28;20104;-60
2023/05/24 00:08:36;;;;;;;1.92;0.68;;;;;;;;;;5023616;28;20111;-60
2023/05/24 00:11:05;;;;;;;1.25;0.80;;;;;;;;;;5015670;28;20050;-60
2023/05/24 00:13:33;;;;;;;1.08;0.50;;;;;;;;;;5018012;28;20577;-61
2023/05/24 00:16:01;;;;;;;0.70;0.70;;;;;;;;;;5037158;28;20072;-61
2023/05/24 00:18:30;;;;;;;1.52;0.60;;;;;;;;;;5022640;28;20081;-60
2023/05/24 00:20:59;;;;;;;1.52;0.70;;;;;;;;;;5017620;28;20100;-59
2023/05/24 00:23:27;;;;;;;0.40;0.40;;;;;;;;;;5019264;28;20041;-60
2023/05/24 00:25:57;;;;;;;1.13;0.50;;;;;;;;;;5014396;28;20050;-60
2023/05/24 00:28:25;;;;;;;1.42;0.80;;;;;;;;;;5019562;28;20045;-61
2023/05/24 00:30:54;;;;;;;2.20;0.93;;;;;;;;;;5017871;28;20084;-63
2023/05/24 00:33:23;;;;;;;1.80;0.90;;;;;;;;;;5021470;28;20572;-59
2023/05/24 00:35:55;;;;;;;1.65;1.05;;;;;;;;;;5027366;28;20072;-62
2023/05/24 00:38:23;;;;;;;1.70;1.02;;;;;;;;;;5026108;28;20049;-61
2023/05/24 00:40:52;;;;;;;2.42;1.13;;;;;;;;;;5027221;28;20133;-62
2023/05/24 00:43:21;;;;;;;1.38;0.60;;;;;;;;;;5024315;28;20093;-62
2023/05/24 00:45:54;;;;;;;0.82;0.70;;;;;;;;;;5024035;28;20104;-61
2023/05/24 00:48:27;;;;;;;0.60;0.47;;;;;;;;;;5023627;28;20046;-60
2023/05/24 00:50:56;;;;;;;0.40;0.40;;;;;;;;;;5021620;28;20061;-62
2023/05/24 00:53:24;;;;;;;0.75;0.60;;;;;;;;;;5028360;28;20108;-63
2023/05/24 00:55:53;;;;;;;1.48;0.80;;;;;;;;;;5027261;28;20087;-60
2023/05/24 00:58:25;;;;;;;2.60;0.75;;;;;;;;;;5029581;28;20061;-62
2023/05/24 01:00:58;;;;;;;0.68;0.68;;;;;;;;;;5030416;28;20060;-63
2023/05/24 01:03:28;;;;;;;1.08;0.80;;;;;;;;;;5052189;23;20081;-67
2023/05/24 01:05:57;;;;;;;1.38;0.60;;;;;;;;;;5053746;28;20118;-65
2023/05/24 01:08:34;;;;;;;1.02;0.55;;;;;;;;;;5054049;28;20087;-65
2023/05/24 01:11:07;;;;;;;1.05;0.70;;;;;;;;;;5053571;28;20053;-64
2023/05/24 01:13:43;;;;;;;2.08;0.70;;;;;;;;;;5054154;28;20045;-64
2023/05/24 01:16:13;;;;;;;1.17;0.82;;;;;;;;;;5053407;28;20049;-64
2023/05/24 01:18:44;;;;;;;1.17;0.65;;;;;;;;;;5053168;28;20053;-65
2023/05/24 01:21:17;;;;;;;0.63;0.55;;;;;;;;;;5053118;28;20049;-65
2023/05/24 01:23:48;;;;;;;0.77;0.50;;;;;;;;;;5052941;28;20473;-65
2023/05/24 01:26:21;;;;;;;2.78;1.30;;;;;;;;;;5052950;28;20045;-65
2023/05/24 01:28:51;;;;;;;2.80;1.17;;;;;;;;;;5053129;28;20076;-66
2023/05/24 01:31:20;;;;;;;1.13;0.60;;;;;;;;;;5053571;28;20080;-66
2023/05/24 01:33:48;;;;;;;1.58;0.70;;;;;;;;;;5043320;28;20507;-68
2023/05/24 01:36:17;;;;;;;2.55;0.60;;;;;;;;;;5047541;28;20048;-65
2023/05/24 01:38:46;;;;;;;2.70;1.17;;;;;;;;;;5042016;28;20041;-68
2023/05/24 01:41:18;;;;;;;1.42;1.20;;;;;;;;;;5048939;28;20344;-67
2023/05/24 01:43:53;;;;;;;1.52;0.80;;;;;;;;;;5048105;28;20477;-68
2023/05/24 01:46:30;;;;;;;3.00;1.27;;;;;;;;;;5046430;28;20467;-70
2023/05/24 01:49:03;;;;;;;1.80;0.98;;;;;;;;;;5038543;28;20045;-67
2023/05/24 01:51:35;;;;;;;6.18;1.17;;;;;;;;;;5043703;28;20076;-66
2023/05/24 01:54:05;;;;;;;2.03;1.25;;;;;;;;;;5047540;28;20453;-67
2023/05/24 01:56:33;;;;;;;1.75;0.70;;;;;;;;;;5043274;28;20045;-65
2023/05/24 01:59:03;;;;;;;2.30;0.70;;;;;;;;;;5048762;28;20045;-66
2023/05/24 02:01:32;;;;;;;4.35;0.85;;;;;;;;;;5048569;28;20462;-68
2023/05/24 02:04:01;;;;;;;2.88;1.48;;;;;;;;;;5052601;28;20096;-66
2023/05/24 02:06:29;;;;;;;1.08;0.50;;;;;;;;;;5052087;28;20120;-68
2023/05/24 02:08:58;;;;;;;2.10;1.00;;;;;;;;;;5049849;28;20456;-67
2023/05/24 02:11:26;;;;;;;2.65;0.95;;;;;;;;;;5052278;28;20045;-65
2023/05/24 02:13:55;;;;;;;3.50;0.90;;;;;;;;;;5053055;28;20053;-67
2023/05/24 02:16:25;;;;;;;1.70;1.00;;;;;;;;;;5042627;28;20094;-67
2023/05/24 02:18:55;;;;;;;2.78;1.00;;;;;;;;;;5053432;28;20049;-68
2023/05/24 02:21:24;;;;;;;1.05;0.60;;;;;;;;;;5053046;28;20114;-65
2023/05/24 02:23:53;;;;;;;1.02;0.70;;;;;;;;;;5050708;28;20091;-67
2023/05/24 02:26:22;;;;;;;1.30;1.15;;;;;;;;;;5050437;28;20061;-67
2023/05/24 02:28:50;;;;;;;1.92;0.93;;;;;;;;;;5046932;28;20175;-69
2023/05/24 02:31:18;;;;;;;2.65;1.00;;;;;;;;;;5053309;28;20080;-70
2023/05/24 02:33:47;;;;;;;0.88;0.43;;;;;;;;;;5049414;28;20045;-66
2023/05/24 02:36:17;;;;;;;0.85;0.60;;;;;;;;;;5042974;28;20460;-66
2023/05/24 02:38:45;;;;;;;1.33;0.80;;;;;;;;;;5046957;28;20596;-68
2023/05/24 02:41:16;;;;;;;2.65;1.00;;;;;;;;;;5046652;28;20049;-67
2023/05/24 02:43:45;;;;;;;1.90;0.93;;;;;;;;;;5052308;28;20057;-66
2023/05/24 02:46:13;;;;;;;1.15;0.80;;;;;;;;;;5052872;28;20078;-67
2023/05/24 02:48:42;;;;;;;3.28;0.90;;;;;;;;;;5051615;28;20458;-67
2023/05/24 02:51:10;;;;;;;2.30;1.10;;;;;;;;;;5053196;28;20171;-67
2023/05/24 02:53:42;;;;;;;1.10;1.00;;;;;;;;;;5051206;28;20088;-71
2023/05/24 02:56:12;;;;;;;2.03;1.23;;;;;;;;;;5047453;28;20056;-68
2023/05/24 02:58:40;;;;;;;2.28;1.08;;;;;;;;;;5049788;28;20049;-65
2023/05/24 03:01:09;;;;;;;2.97;0.88;;;;;;;;;;5052457;28;20510;-66
2023/05/24 03:03:38;;;;;;;2.45;0.90;;;;;;;;;;5051733;28;20057;-68
2023/05/24 03:06:07;;;;;;;1.98;0.88;;;;;;;;;;5051940;28;20053;-66
2023/05/24 03:08:36;;;;;;;0.82;0.60;;;;;;;;;;5048571;28;20414;-67
2023/05/24 03:11:06;;;;;;;2.95;0.88;;;;;;;;;;5047299;28;20482;-66
2023/05/24 03:13:35;;;;;;;0.90;0.63;;;;;;;;;;5040967;28;20049;-66
2023/05/24 03:16:03;;;;;;;1.17;0.80;;;;;;;;;;5049867;28;20456;-67
2023/05/24 03:18:31;;;;;;;4.35;1.58;;;;;;;;;;5050430;28;20052;-66
2023/05/24 03:21:00;;;;;;;1.73;1.05;;;;;;;;;;5052014;28;20142;-66
2023/05/24 03:23:28;;;;;;;1.52;1.25;;;;;;;;;;5048035;28;20485;-65
2023/05/24 03:25:56;;;;;;;1.30;0.98;;;;;;;;;;5047898;28;20088;-67
2023/05/24 03:28:27;;;;;;;1.42;0.82;;;;;;;;;;5048502;28;20074;-67
2023/05/24 03:30:55;;;;;;;4.05;1.00;;;;;;;;;;5051792;28;20094;-66
2023/05/24 03:33:24;;;;;;;1.10;1.00;;;;;;;;;;5049002;28;20049;-69
2023/05/24 03:35:52;;;;;;;2.42;1.30;;;;;;;;;;5042956;28;20481;-66
2023/05/24 03:38:20;;;;;;;3.97;1.52;;;;;;;;;;5050802;28;20083;-66
2023/05/24 03:40:49;;;;;;;2.63;1.10;;;;;;;;;;5050642;28;20088;-68
2023/05/24 03:43:17;;;;;;;4.00;1.40;;;;;;;;;;5049514;28;20095;-67
2023/05/24 03:45:47;;;;;;;1.40;0.88;;;;;;;;;;5051630;28;20087;-66
2023/05/24 03:48:15;;;;;;;2.22;1.08;;;;;;;;;;5047270;28;20440;-67
2023/05/24 03:50:44;;;;;;;1.48;0.70;;;;;;;;;;5052390;28;20088;-65
2023/05/24 03:53:12;;;;;;;2.38;1.17;;;;;;;;;;5047280;28;20110;-67
2023/05/24 03:55:41;;;;;;;1.95;0.90;;;;;;;;;;5048899;28;20497;-67
2023/05/24 03:58:09;;;;;;;3.47;1.05;;;;;;;;;;5049962;28;20121;-66
2023/05/24 04:00:37;;;;;;;2.38;0.60;;;;;;;;;;5050968;28;20049;-66
2023/05/24 04:03:07;;;;;;;2.53;1.30;;;;;;;;;;5039892;28;20103;-67
2023/05/24 04:05:36;;;;;;;2.75;1.13;;;;;;;;;;5049961;28;20053;-67
2023/05/24 04:08:05;;;;;;;1.88;0.98;;;;;;;;;;5051775;28;20446;-67
2023/05/24 04:10:33;;;;;;;1.77;0.80;;;;;;;;;;5051572;28;20124;-69
2023/05/24 04:13:02;;;;;;;2.13;1.30;;;;;;;;;;5051817;28;20128;-67
2023/05/24 04:15:31;;;;;;;2.28;0.93;;;;;;;;;;5050751;28;20057;-66
2023/05/24 04:17:59;;;;;;;3.10;1.45;;;;;;;;;;5049098;28;20528;-68
2023/05/24 04:20:29;;;;;;;2.80;0.95;;;;;;;;;;5050781;28;20490;-66
2023/05/24 04:22:58;;;;;;;1.85;0.73;;;;;;;;;;5040419;28;20077;-69
2023/05/24 04:25:26;;;;;;;1.33;0.77;;;;;;;;;;5045520;28;20057;-66
2023/05/24 04:27:55;;;;;;;1.63;0.65;;;;;;;;;;5047165;28;20107;-66
2023/05/24 04:30:24;;;;;;;1.85;1.05;;;;;;;;;;5045864;28;20041;-67
2023/05/24 04:32:53;;;;;;;1.80;1.20;;;;;;;;;;5045296;28;20041;-66
2023/05/24 04:35:21;;;;;;;3.38;1.02;;;;;;;;;;5050632;28;20060;-66
2023/05/24 04:37:51;;;;;;;1.80;0.75;;;;;;;;;;5047954;28;20099;-65
2023/05/24 04:40:21;;;;;;;0.75;0.60;;;;;;;;;;5050850;28;20091;-67
2023/05/24 04:42:51;;;;;;;1.25;0.77;;;;;;;;;;5047757;28;20141;-66
2023/05/24 04:45:19;;;;;;;5.18;0.82;;;;;;;;;;5048866;28;20052;-66
2023/05/24 04:47:47;;;;;;;1.27;0.82;;;;;;;;;;5047405;28;20144;-68
2023/05/24 04:50:16;;;;;;;1.88;0.98;;;;;;;;;;5041724;28;20048;-67
2023/05/24 04:52:44;;;;;;;2.33;0.80;;;;;;;;;;5048790;28;20136;-66
2023/05/24 04:55:14;;;;;;;3.22;0.90;;;;;;;;;;5047588;28;20072;-66
2023/05/24 04:57:43;;;;;;;2.28;0.93;;;;;;;;;;5047060;28;20077;-67
2023/05/24 05:00:11;;;;;;;3.13;1.05;;;;;;;;;;5048715;28;20571;-65
2023/05/24 05:02:40;;;;;;;1.48;0.63;;;;;;;;;;5050131;28;20049;-66
2023/05/24 05:05:09;;;;;;;3.67;1.10;;;;;;;;;;5041055;28;20391;-66
2023/05/24 05:07:37;;;;;;;1.92;0.82;;;;;;;;;;5037182;28;20452;-66
2023/05/24 05:10:09;;;;;;;4.03;0.90;;;;;;;;;;5047930;28;20075;-66
2023/05/24 05:12:39;;;;;;;5.97;1.13;;;;;;;;;;5050092;28;20060;-69
2023/05/24 05:15:08;;;;;;;2.45;0.88;;;;;;;;;;5047054;28;20049;-68
2023/05/24 05:17:36;;;;;;;0.75;0.75;;;;;;;;;;5032055;28;20099;-68
2023/05/24 05:20:05;;;;;;;3.38;1.00;;;;;;;;;;5042892;28;20067;-68
2023/05/24 05:22:36;;;;;;;1.73;0.98;;;;;;;;;;5045897;28;20417;-69
2023/05/24 05:25:05;;;;;;;2.42;1.30;;;;;;;;;;5046846;28;20081;-69
2023/05/24 05:27:34;;;;;;;2.67;1.00;;;;;;;;;;5035137;28;20053;-66
2023/05/24 05:30:04;;;;;;;2.03;0.90;;;;;;;;;;5043185;28;20131;-68
2023/05/24 05:32:32;;;;;;;1.77;0.82;;;;;;;;;;5049761;28;20084;-68
2023/05/24 05:35:01;;;;;;;6.63;1.83;;;;;;;;;;5044080;28;20072;-69
2023/05/24 05:37:30;;;;;;;5.72;1.20;;;;;;;;;;5048503;28;20114;-69
2023/05/24 05:39:58;;;;;;;2.55;1.45;;;;;;;;;;5048906;28;20091;-68
2023/05/24 05:42:27;;;;;;;2.63;0.77;;;;;;;;;;5049491;28;20048;-69
2023/05/24 05:44:55;;;;;;;3.33;1.90;;;;;;;;;;5049232;28;20057;-69
2023/05/24 05:47:25;;;;;;;1.88;1.05;;;;;;;;;;5044166;28;20053;-68
2023/05/24 05:49:54;;;;;;;2.97;1.63;;;;;;;;;;5048951;28;20103;-68
2023/05/24 05:52:22;;;;;;;1.65;0.95;;;;;;;;;;5048905;28;20045;-68
2023/05/24 05:54:51;;;;;;;5.00;1.33;;;;;;;;;;5048969;28;20391;-68
2023/05/24 05:57:22;;;;;;;2.30;1.17;;;;;;;;;;5049897;28;20048;-68
2023/05/24 05:59:51;;;;;;;2.65;1.33;;;;;;;;;;5044010;28;20052;-68
2023/05/24 06:02:21;;;;;;;4.53;2.03;;;;;;;;;;5046244;28;20282;-68
2023/05/24 06:04:51;;;;;;;5.20;2.00;;;;;;;;;;5048336;28;20049;-69
2023/05/24 06:07:20;;;;;;;4.53;1.45;;;;;;;;;;5046998;28;20072;-68
2023/05/24 06:09:48;;;;;;;2.42;1.05;;;;;;;;;;5049916;28;20048;-68
2023/05/24 06:12:17;;;;;;;2.97;1.13;;;;;;;;;;5042970;28;20056;-68
2023/05/24 06:14:47;;;;;;;2.90;1.77;;;;;;;;;;5048975;28;20052;-69
2023/05/24 06:17:15;;;;;;;3.00;1.80;;;;;;;;;;5049581;28;20520;-68
2023/05/24 06:19:44;;;;;;;5.30;1.95;;;;;;;;;;5049369;28;20056;-68
2023/05/24 06:22:14;;;;;;;1.77;1.15;;;;;;;;;;5049401;28;20052;-68
2023/05/24 06:24:42;;;;;;;2.25;1.02;;;;;;;;;;5046559;28;20056;-68
2023/05/24 06:27:11;;;;;;;2.85;1.63;;;;;;;;;;5045327;28;20040;-69
2023/05/24 06:29:39;;;;;;;2.47;1.30;;;;;;;;;;5049669;28;20049;-68
2023/05/24 06:32:08;;;;;;;1.98;1.00;;;;;;;;;;5049575;28;20138;-68
2023/05/24 06:34:36;;;;;;;2.95;1.48;;;;;;;;;;5047389;28;20045;-68
2023/05/24 06:37:09;;;;;;;10.68;1.40;;;;;;;;;;5042553;28;20048;-68
2023/05/24 06:39:38;;;;;;;3.33;0.98;;;;;;;;;;5049089;28;20052;-68
2023/05/24 06:42:07;;;;;;;2.53;1.02;;;;;;;;;;5044693;28;20045;-68
2023/05/24 06:44:35;;;;;;;2.38;0.90;;;;;;;;;;5046809;28;20502;-68
2023/05/24 06:47:04;;;;;;;2.05;1.17;;;;;;;;;;5044485;28;20132;-66
2023/05/24 06:49:33;;;;;;;2.70;1.50;;;;;;;;;;5050795;28;20127;-67
2023/05/24 06:52:02;;;;;;;1.75;0.88;;;;;;;;;;5051337;28;20558;-69
2023/05/24 06:54:30;;;;;;;1.48;0.90;;;;;;;;;;5052603;28;20049;-68
2023/05/24 06:57:00;;;;;;;0.73;0.73;;;;;;;;;;5051768;28;20489;-67
2023/05/24 06:59:28;;;;;;;2.88;1.45;;;;;;;;;;5052191;28;20052;-68
2023/05/24 07:01:57;;;;;;;1.52;0.98;;;;;;;;;;5051516;28;20049;-69
2023/05/24 07:04:30;;;;;;;1.92;1.23;;;;;;;;;;5051637;28;20145;-68
2023/05/24 07:06:58;;;;;;;2.75;1.10;;;;;;;;;;5045547;28;20049;-70
2023/05/24 07:09:27;;;;;;;2.60;1.23;;;;;;;;;;5041987;28;20063;-68
2023/05/24 07:11:55;;;;;;;3.88;1.42;;;;;;;;;;5051728;28;20061;-69
2023/05/24 07:14:26;;;;;;;4.18;1.80;;;;;;;;;;5050950;28;20068;-69
2023/05/24 07:16:56;;;;;;;2.25;1.40;;;;;;;;;;5051895;28;20052;-67
2023/05/24 07:19:27;;;;;;;2.08;0.80;;;;;;;;;;5052444;28;20055;-68
2023/05/24 07:21:57;;;;;;;2.13;1.02;;;;;;;;;;5051281;28;20469;-69
2023/05/24 07:24:25;;;;;;;1.98;1.27;;;;;;;;;;5050893;28;20124;-70
2023/05/24 07:26:55;;;;;;;3.33;1.40;;;;;;;;;;5047977;28;20088;-69
2023/05/24 07:29:25;;;;;;;1.30;0.95;;;;;;;;;;5039600;28;20391;-67
2023/05/24 07:31:56;;;;;;;1.85;1.13;;;;;;;;;;5051832;28;20063;-67
2023/05/24 07:34:28;;;;;;;4.00;0.85;;;;;;;;;;5049759;28;20482;-67
2023/05/24 07:36:59;;;;;;;2.17;1.10;;;;;;;;;;5043186;28;20336;-68
2023/05/24 07:39:28;;;;;;;2.10;1.15;;;;;;;;;;5040185;28;20049;-68
2023/05/24 07:41:56;;;;;;;2.10;1.10;;;;;;;;;;5039365;28;20096;-68
2023/05/24 07:44:26;;;;;;;1.65;1.10;;;;;;;;;;5041163;28;20041;-71
2023/05/24 07:46:55;;;;;;;1.60;0.68;;;;;;;;;;5041885;28;20446;-68
2023/05/24 07:49:24;;;;;;;3.60;1.30;;;;;;;;;;5042059;28;20083;-69
2023/05/24 07:51:55;;;;;;;3.40;1.60;;;;;;;;;;5040261;28;20040;-69
2023/05/24 07:54:24;;;;;;;2.17;1.10;;;;;;;;;;5041400;28;20041;-69
2023/05/24 07:56:52;;;;;;;3.78;1.50;;;;;;;;;;5041650;28;20057;-73
2023/05/24 07:59:21;;;;;;;2.25;1.63;;;;;;;;;;5043305;28;20049;-70
2023/05/24 08:01:51;;;;;;;2.08;1.05;;;;;;;;;;5040512;28;20477;-69
2023/05/24 08:04:20;;;;;;;4.40;1.70;;;;;;;;;;5042061;28;20061;-69
2023/05/24 08:06:49;;;;;;;3.28;1.25;;;;;;;;;;5040817;28;20110;-68
2023/05/24 08:09:17;;;;;;;1.48;0.90;;;;;;;;;;5040448;28;20399;-68
2023/05/24 08:11:46;;;;;;;2.15;1.10;;;;;;;;;;5039497;28;20049;-69
2023/05/24 08:14:14;;;;;;;3.53;1.17;;;;;;;;;;5041067;28;20085;-72
2023/05/24 08:16:43;;;;;;;3.65;1.73;;;;;;;;;;5040257;28;20060;-69
2023/05/24 08:19:13;;;;;;;2.13;1.02;;;;;;;;;;5038996;28;20048;-69
2023/05/24 08:21:42;;;;;;;2.00;1.33;;;;;;;;;;5037338;28;20049;-69
2023/05/24 08:24:10;;;;;;;2.33;1.52;;;;;;;;;;5039745;28;20048;-68
2023/05/24 08:26:39;;;;;;;2.33;1.60;;;;;;;;;;5042200;28;20074;-72
2023/05/24 08:29:07;;;;;;;6.18;1.48;;;;;;;;;;5041250;28;20064;-69
2023/05/24 08:31:37;;;;;;;1.98;1.20;;;;;;;;;;5039672;28;20046;-68
2023/05/24 08:34:05;;;;;;;2.85;1.52;;;;;;;;;;5040813;28;20056;-68
2023/05/24 08:36:36;;;;;;;1.85;1.55;;;;;;;;;;5036502;28;20128;-70
2023/05/24 08:39:05;;;;;;;3.13;1.58;;;;;;;;;;5040193;28;20048;-72
2023/05/24 08:41:36;;;;;;;3.28;2.13;;;;;;;;;;5040419;28;20060;-70
2023/05/24 08:44:06;;;;;;;3.45;1.98;;;;;;;;;;5040550;28;20052;-69
2023/05/24 08:46:34;;;;;;;1.92;1.35;;;;;;;;;;5040873;28;20052;-71
2023/05/24 08:49:03;;;;;;;2.90;1.67;;;;;;;;;;5040239;28;20065;-68
2023/05/24 08:51:32;;;;;;;2.85;1.15;;;;;;;;;;5037591;28;20565;-70
2023/05/24 08:54:02;;;;;;;4.05;0.93;;;;;;;;;;5041876;28;20053;-68
2023/05/24 08:56:31;;;;;;;2.78;1.17;;;;;;;;;;5040203;28;20553;-67
2023/05/24 08:59:00;;;;;;;2.40;1.65;;;;;;;;;;5039957;28;20074;-70
2023/05/24 09:01:30;;;;;;;3.47;1.38;;;;;;;;;;5036106;28;20045;-67
2023/05/24 09:04:03;;;;;;;3.92;1.33;;;;;;;;;;5036066;28;20057;-68
2023/05/24 09:06:32;;;;;;;3.72;1.52;;;;;;;;;;5039107;28;20520;-69
2023/05/24 09:09:01;;;;;;;3.40;1.33;;;;;;;;;;5040481;28;20049;-67
2023/05/24 09:11:32;;;;;;;2.78;1.67;;;;;;;;;;5040718;28;20620;-67
2023/05/24 09:14:01;;;;;;;2.22;1.63;;;;;;;;;;5040224;28;20103;-69
2023/05/24 09:16:29;;;;;;;1.92;1.63;;;;;;;;;;5040318;28;20052;-68
2023/05/24 09:18:58;;;;;;;5.00;1.65;;;;;;;;;;5038784;28;20053;-68
2023/05/24 09:21:28;;;;;;;2.97;1.48;;;;;;;;;;5037196;28;20505;-67
2023/05/24 09:23:56;;;;;;;3.45;1.73;;;;;;;;;;5039555;28;20961;-68
2023/05/24 09:26:25;;;;;;;3.70;2.08;;;;;;;;;;5041438;28;20497;-67
2023/05/24 09:28:57;;;;;;;4.97;2.20;;;;;;;;;;5040646;28;20052;-72
2023/05/24 09:31:33;;;;;;;2.17;1.35;;;;;;;;;;5042549;28;20473;-70
2023/05/24 09:34:01;;;;;;;3.78;1.70;;;;;;;;;;5038752;28;20164;-68
2023/05/24 09:36:31;;;;;;;3.42;1.42;;;;;;;;;;5034383;28;21257;-71
2023/05/24 09:39:08;;;;;;;4.22;1.75;;;;;;;;;;5038304;28;20049;-69
2023/05/24 09:41:37;;;;;;;4.28;1.95;;;;;;;;;;5040698;28;20782;-67
2023/05/24 09:44:07;;;;;;;5.07;1.75;;;;;;;;;;5038982;28;20493;-68
2023/05/24 09:46:37;;;;;;;3.67;1.60;;;;;;;;;;5039501;28;20048;-73
2023/05/24 09:49:07;;;;;;;3.28;1.27;;;;;;;;;;5039179;28;20051;-68
2023/05/24 09:51:38;;;;;;;2.78;1.73;;;;;;;;;;5038414;28;20045;-68
2023/05/24 09:54:07;;;;;;;2.50;1.50;;;;;;;;;;5040246;28;20398;-70
2023/05/24 09:56:35;;;;;;;3.63;1.77;;;;;;;;;;5038832;28;20052;-68
2023/05/24 09:59:08;;;;;;;2.72;1.58;;;;;;;;;;5036867;28;20084;-69
2023/05/24 10:01:37;;;;;;;5.20;1.25;;;;;;;;;;5038300;28;20052;-69
2023/05/24 10:04:06;;;;;;;6.78;1.73;;;;;;;;;;5038365;28;20049;-71
2023/05/24 10:06:39;;;;;;;3.67;1.58;;;;;;;;;;5040263;28;20049;-68
2023/05/24 10:09:08;;;;;;;5.43;1.85;;;;;;;;;;5039782;28;20405;-68
2023/05/24 10:11:37;;;;;;;2.42;1.38;;;;;;;;;;5040550;28;20665;-67
2023/05/24 10:14:07;;;;;;;4.72;1.77;;;;;;;;;;5038711;28;20053;-68
2023/05/24 10:16:37;;;;;;;2.05;1.52;;;;;;;;;;5037992;28;20083;-69
2023/05/24 10:19:06;;;;;;;4.32;1.80;;;;;;;;;;5037682;28;20495;-68
2023/05/24 10:21:37;;;;;;;2.17;1.60;;;;;;;;;;5038253;28;20045;-68
2023/05/24 10:24:06;;;;;;;2.60;1.67;;;;;;;;;;5042789;28;20052;-68
2023/05/24 10:26:37;;;;;;;3.60;1.20;;;;;;;;;;5039986;28;20041;-68
2023/05/24 10:29:09;;;;;;;2.00;1.13;;;;;;;;;;5041961;28;20068;-68
2023/05/24 10:31:41;;;;;;;4.55;1.38;;;;;;;;;;5044133;28;20540;-72
2023/05/24 10:34:10;;;;;;;4.03;1.52;;;;;;;;;;5043389;28;20041;-67
2023/05/24 10:36:39;;;;;;;2.45;1.50;;;;;;;;;;5042645;28;20056;-68
2023/05/24 10:39:09;;;;;;;10.25;1.98;;;;;;;;;;5044381;28;20095;-69
2023/05/24 10:41:41;;;;;;;2.72;1.88;;;;;;;;;;5044169;28;20052;-68
2023/05/24 10:44:13;;;;;;;3.28;1.65;;;;;;;;;;5042492;28;20052;-68
2023/05/24 10:47:00;;;;;;;2.55;1.23;;;;;;;;;;5040887;28;20070;-68
2023/05/24 10:49:30;;;;;;;5.35;1.90;;;;;;;;;;5043405;28;20413;-68
2023/05/24 10:52:02;;;;;;;3.25;1.58;;;;;;;;;;5041324;28;20057;-69
2023/05/24 10:54:30;;;;;;;5.30;2.05;;;;;;;;;;5043425;28;20136;-69
2023/05/24 10:57:03;;;;;;;3.55;1.40;;;;;;;;;;5040789;28;20045;-69
2023/05/24 10:59:36;;;;;;;4.72;1.70;;;;;;;;;;5042733;28;20044;-68
2023/05/24 11:02:05;;;;;;;3.80;2.05;;;;;;;;;;5042792;28;20460;-69
2023/05/24 11:04:37;;;;;;;2.72;1.73;;;;;;;;;;5042753;28;21852;-68
2023/05/24 11:07:08;;;;;;;3.08;1.55;;;;;;;;;;5039916;28;20045;-69
2023/05/24 11:09:38;;;;;;;4.57;1.98;;;;;;;;;;5044642;28;20387;-65
2023/05/24 11:12:08;;;;;;;3.63;1.73;;;;;;;;;;5042290;28;20055;-68
2023/05/24 11:14:38;;;;;;;7.47;1.75;;;;;;;;;;5042895;28;20284;-67
2023/05/24 11:17:07;;;;;;;2.95;2.25;;;;;;;;;;5042860;28;20044;-68
2023/05/24 11:19:37;;;;;;;2.88;2.03;;;;;;;;;;5043167;28;20076;-67
2023/05/24 11:22:07;;;;;;;3.17;2.33;;;;;;;;;;5042543;28;20052;-68
2023/05/24 11:24:37;;;;;;;2.60;1.67;;;;;;;;;;5041133;28;20057;-68
2023/05/24 11:27:05;;;;;;;5.07;1.80;;;;;;;;;;5042319;28;20054;-67
2023/05/24 11:29:40;;;;;;;7.82;2.15;;;;;;;;;;5042154;28;20057;-68
2023/05/24 11:32:09;;;;;;;2.70;1.70;;;;;;;;;;5038047;28;20382;-68
2023/05/24 11:34:39;;;;;;;2.58;1.90;;;;;;;;;;5042117;28;20460;-67
2023/05/24 11:37:08;;;;;;;3.40;1.63;;;;;;;;;;5040298;28;20130;-68
2023/05/24 11:39:37;;;;;;;3.47;1.90;;;;;;;;;;5043038;28;20559;-68
2023/05/24 11:42:06;;;;;;;3.97;2.38;;;;;;;;;;5040935;28;20741;-68
2023/05/24 11:44:36;;;;;;;5.00;1.83;;;;;;;;;;5038944;28;20053;-67
2023/05/24 11:47:06;;;;;;;3.45;1.83;;;;;;;;;;5040435;28;20143;-73
2023/05/24 11:49:35;;;;;;;3.13;1.90;;;;;;;;;;5041821;28;20049;-72
2023/05/24 11:52:05;;;;;;;8.18;2.20;;;;;;;;;;5041564;28;20056;-68
2023/05/24 11:54:34;;;;;;;4.63;2.10;;;;;;;;;;5042314;28;20064;-68
2023/05/24 11:57:05;;;;;;;5.07;2.17;;;;;;;;;;5040817;28;20577;-71
2023/05/24 11:59:36;;;;;;;4.50;1.42;;;;;;;;;;5040993;28;20236;-68
2023/05/24 12:02:06;;;;;;;2.58;1.77;;;;;;;;;;5041569;28;20041;-67
2023/05/24 12:04:35;;;;;;;3.83;1.80;;;;;;;;;;5037063;28;20049;-68
2023/05/24 12:07:05;;;;;;;4.50;2.55;;;;;;;;;;5041101;28;20084;-67
2023/05/24 12:09:33;;;;;;;6.32;1.88;;;;;;;;;;5042553;28;20041;-69
2023/05/24 12:12:02;;;;;;;6.07;1.38;;;;;;;;;;5041907;28;20095;-74
2023/05/24 12:14:31;;;;;;;5.35;2.10;;;;;;;;;;5039413;28;20099;-67
2023/05/24 12:16:59;;;;;;;3.67;1.70;;;;;;;;;;5039512;28;20072;-71
2023/05/24 12:19:33;;;;;;;2.10;1.30;;;;;;;;;;5041058;28;20080;-67
2023/05/24 12:22:04;;;;;;;5.70;2.05;;;;;;;;;;5039000;28;20594;-67
2023/05/24 12:24:35;;;;;;;2.25;1.23;;;;;;;;;;5041250;28;20087;-69
2023/05/24 12:27:06;;;;;;;3.13;2.17;;;;;;;;;;5041123;28;20044;-69
2023/05/24 12:29:35;;;;;;;3.53;1.60;;;;;;;;;;5040382;28;20156;-67
2023/05/24 12:32:05;;;;;;;3.53;1.33;;;;;;;;;;5038789;28;20064;-69
2023/05/24 12:34:33;;;;;;;3.03;1.23;;;;;;;;;;5042226;28;20246;-67
2023/05/24 12:37:03;;;;;;;5.40;1.48;;;;;;;;;;5038494;28;20087;-68
2023/05/24 12:39:33;;;;;;;2.70;1.55;;;;;;;;;;5040679;28;20052;-67
2023/05/24 12:42:04;;;;;;;2.92;1.15;;;;;;;;;;5038083;28;20409;-67
2023/05/24 12:44:34;;;;;;;2.85;1.58;;;;;;;;;;5039651;28;20068;-68
2023/05/24 12:47:04;;;;;;;3.30;1.60;;;;;;;;;;5035232;28;20146;-71
2023/05/24 12:49:32;;;;;;;5.13;3.17;;;;;;;;;;5040476;28;20087;-66
2023/05/24 12:52:01;;;;;;;3.78;1.52;;;;;;;;;;5039278;28;20067;-67
2023/05/24 12:54:30;;;;;;;2.00;1.23;;;;;;;;;;5038481;28;20470;-70
2023/05/24 12:57:01;;;;;;;3.50;1.73;;;;;;;;;;5036186;28;20520;-67
2023/05/24 12:59:31;;;;;;;3.00;1.42;;;;;;;;;;5037585;28;20958;-68
2023/05/24 13:02:00;;;;;;;7.32;1.75;;;;;;;;;;5040842;28;20057;-67
2023/05/24 13:04:30;;;;;;;4.03;1.63;;;;;;;;;;5038608;28;20060;-69
2023/05/24 13:06:59;;;;;;;4.43;2.15;;;;;;;;;;5036490;28;20227;-68
2023/05/24 13:09:27;;;;;;;3.05;1.73;;;;;;;;;;5038763;28;20045;-67
2023/05/24 13:11:56;;;;;;;4.40;1.65;;;;;;;;;;5041194;28;20052;-67
2023/05/24 13:14:24;;;;;;;5.28;1.55;;;;;;;;;;5037167;28;20382;-69
2023/05/24 13:16:54;;;;;;;4.63;2.10;;;;;;;;;;5037576;28;20080;-69
2023/05/24 13:19:23;;;;;;;2.60;1.40;;;;;;;;;;5037494;28;20060;-68
2023/05/24 13:21:51;;;;;;;3.65;1.98;;;;;;;;;;5036585;28;20466;-67
2023/05/24 13:24:20;;;;;;;5.72;2.28;;;;;;;;;;5039054;28;20149;-74
2023/05/24 13:26:48;;;;;;;4.30;2.50;;;;;;;;;;5038598;28;20049;-67
2023/05/24 13:29:21;;;;;;;6.32;1.98;;;;;;;;;;5038343;28;20041;-67
2023/05/24 13:32:08;;;;;;;5.43;1.75;;;;;;;;;;5037257;28;20598;-66
2023/05/24 13:34:36;;;;;;;4.40;1.70;;;;;;;;;;5041641;28;20053;-66
2023/05/24 13:37:06;;;;;;;3.88;1.30;;;;;;;;;;5039171;28;20052;-67
2023/05/24 13:39:35;;;;;;;4.97;1.80;;;;;;;;;;5039849;28;20087;-66
2023/05/24 13:42:04;;;;;;;1.75;1.45;;;;;;;;;;5037060;28;20411;-67
2023/05/24 13:44:32;;;;;;;3.03;1.45;;;;;;;;;;5036411;28;20052;-68
2023/05/24 13:47:01;;;;;;;9.75;1.77;;;;;;;;;;5038361;28;20052;-68
2023/05/24 13:49:31;;;;;;;3.67;1.98;;;;;;;;;;5038312;28;20055;-68
2023/05/24 13:52:00;;;;;;;3.08;1.70;;;;;;;;;;5040902;28;20045;-68
2023/05/24 13:54:28;;;;;;;3.83;2.08;;;;;;;;;;5039001;28;20052;-69
2023/05/24 13:56:57;;;;;;;2.58;2.00;;;;;;;;;;5038561;28;20554;-71
2023/05/24 13:59:25;;;;;;;5.63;1.65;;;;;;;;;;5042017;28;20460;-67
2023/05/24 14:01:54;;;;;;;3.03;1.60;;;;;;;;;;5041782;28;20048;-69
2023/05/24 14:04:23;;;;;;;8.32;1.55;;;;;;;;;;5040447;28;20095;-72
2023/05/24 14:06:53;;;;;;;3.03;1.50;;;;;;;;;;5040215;28;20095;-69
2023/05/24 14:09:22;;;;;;;2.42;1.20;;;;;;;;;;5039715;28;20104;-74
2023/05/24 14:11:50;;;;;;;2.78;1.27;;;;;;;;;;5041954;28;20052;-67
2023/05/24 14:14:19;;;;;;;1.52;1.20;;;;;;;;;;5040568;28;20084;-69
2023/05/24 14:17:08;;;;;;;2.83;1.60;;;;;;;;;;5043346;28;20947;-69
2023/05/24 14:19:37;;;;;;;5.53;1.27;;;;;;;;;;5041967;28;20102;-68
2023/05/24 14:22:07;;;;;;;5.28;2.13;;;;;;;;;;5042816;28;20052;-67
2023/05/24 14:24:35;;;;;;;3.88;1.70;;;;;;;;;;5041826;28;20041;-74
2023/05/24 14:27:05;;;;;;;4.18;1.80;;;;;;;;;;5041862;28;20126;-67
2023/05/24 14:29:34;;;;;;;8.85;1.40;;;;;;;;;;5043239;28;20048;-70
2023/05/24 14:32:03;;;;;;;3.78;1.65;;;;;;;;;;5043661;28;20045;-67
2023/05/24 14:34:31;;;;;;;2.20;1.23;;;;;;;;;;5044021;28;20053;-67
2023/05/24 14:37:00;;;;;;;1.27;1.05;;;;;;;;;;5042981;28;20123;-72
2023/05/24 14:39:30;;;;;;;4.47;1.77;;;;;;;;;;5041983;28;20559;-68
2023/05/24 14:41:59;;;;;;;1.80;1.35;;;;;;;;;;5042976;28;20716;-69
2023/05/24 14:44:27;;;;;;;2.47;1.40;;;;;;;;;;5041121;28;20075;-68
2023/05/24 14:46:56;;;;;;;2.10;1.30;;;;;;;;;;5040653;28;20085;-69
2023/05/24 14:49:24;;;;;;;2.22;1.50;;;;;;;;;;5041485;28;20497;-68
2023/05/24 14:51:53;;;;;;;3.25;1.27;;;;;;;;;;5043527;28;20044;-68
2023/05/24 14:54:21;;;;;;;2.97;1.60;;;;;;;;;;5041113;28;20053;-73
2023/05/24 14:56:51;;;;;;;6.07;1.45;;;;;;;;;;5041659;28;20064;-67